sensor_id;sensor_type;location;lat;lon;timestamp;temperature;humidity
40738;DHT22;54759;48.094;-1.628;2022-10-16T00:01:04;22.70;59.10
40738;DHT22;54759;48.094;-1.628;2022-10-16T00:04:07;22.70;59.00
40738;DHT22;54759;48.094;-1.628;2022-10-16T00:07:09;22.60;59.00
40738;DHT22;54759;48.094;-1.628;2022-10-16T00:10:10;22.70;59.20
40738;DHT22;54759;48.094;-1.628;2022-10-16T00:13:12;22.80;59.50
40738;DHT22;54759;48.094;-1.628;2022-10-16T00:16:14;22.90;59.40
40738;DHT22;54759;48.094;-1.628;2022-10-16T00:19:16;22.40;59.00
40738;DHT22;54759;48.094;-1.628;2022-10-16T00:22:18;22.70;59.30
40738;DHT22;54759;48.094;-1.628;2022-10-16T00:25:22;22.90;59.50
40738;DHT22;54759;48.094;-1.628;2022-10-16T00:28:24;22.90;59.50
40738;DHT22;54759;48.094;-1.628;2022-10-16T00:31:25;22.70;59.40
40738;DHT22;54759;48.094;-1.628;2022-10-16T00:34:27;22.70;59.50
40738;DHT22;54759;48.094;-1.628;2022-10-16T00:37:29;22.60;59.50
40738;DHT22;54759;48.094;-1.628;2022-10-16T00:40:30;22.70;59.60
40738;DHT22;54759;48.094;-1.628;2022-10-16T00:43:36;22.60;59.60
40738;DHT22;54759;48.094;-1.628;2022-10-16T00:46:40;23.00;59.60
40738;DHT22;54759;48.094;-1.628;2022-10-16T00:49:43;22.90;74.60
40738;DHT22;54759;48.094;-1.628;2022-10-16T00:52:46;22.90;59.80
40738;DHT22;54759;48.094;-1.628;2022-10-16T00:55:52;22.60;59.50
40738;DHT22;54759;48.094;-1.628;2022-10-16T00:58:55;22.60;59.60
40738;DHT22;54759;48.094;-1.628;2022-10-16T01:01:57;23.00;60.00
40738;DHT22;54759;48.094;-1.628;2022-10-16T01:05:00;22.80;59.90
40738;DHT22;54759;48.094;-1.628;2022-10-16T01:08:08;23.00;60.10
40738;DHT22;54759;48.094;-1.628;2022-10-16T01:11:19;23.30;60.10
40738;DHT22;54759;48.094;-1.628;2022-10-16T01:14:27;22.30;59.70
40738;DHT22;54759;48.094;-1.628;2022-10-16T01:17:37;22.30;59.70
40738;DHT22;54759;48.094;-1.628;2022-10-16T01:20:44;22.60;60.00
40738;DHT22;54759;48.094;-1.628;2022-10-16T01:23:56;22.60;60.00
40738;DHT22;54759;48.094;-1.628;2022-10-16T01:27:09;22.70;60.10
40738;DHT22;54759;48.094;-1.628;2022-10-16T01:30:13;22.80;60.20
40738;DHT22;54759;48.094;-1.628;2022-10-16T01:33:19;22.90;60.30
40738;DHT22;54759;48.094;-1.628;2022-10-16T01:36:26;22.90;60.30
40738;DHT22;54759;48.094;-1.628;2022-10-16T01:39:32;22.60;60.30
40738;DHT22;54759;48.094;-1.628;2022-10-16T01:42:39;22.70;60.30
40738;DHT22;54759;48.094;-1.628;2022-10-16T01:45:42;22.80;60.30
40738;DHT22;54759;48.094;-1.628;2022-10-16T01:48:45;22.70;60.40
40738;DHT22;54759;48.094;-1.628;2022-10-16T01:51:49;22.60;60.50
40738;DHT22;54759;48.094;-1.628;2022-10-16T01:54:54;23.10;60.70
40738;DHT22;54759;48.094;-1.628;2022-10-16T01:57:59;22.70;60.50
40738;DHT22;54759;48.094;-1.628;2022-10-16T02:01:02;22.60;60.50
40738;DHT22;54759;48.094;-1.628;2022-10-16T02:04:08;22.80;60.70
40738;DHT22;54759;48.094;-1.628;2022-10-16T02:07:10;22.30;60.50
40738;DHT22;54759;48.094;-1.628;2022-10-16T02:10:12;22.60;60.70
40738;DHT22;54759;48.094;-1.628;2022-10-16T02:13:15;22.40;60.80
40738;DHT22;54759;48.094;-1.628;2022-10-16T02:16:18;22.90;61.90
40738;DHT22;54759;48.094;-1.628;2022-10-16T02:19:21;22.60;60.90
40738;DHT22;54759;48.094;-1.628;2022-10-16T02:22:28;22.70;60.90
40738;DHT22;54759;48.094;-1.628;2022-10-16T02:25:33;22.70;60.90
40738;DHT22;54759;48.094;-1.628;2022-10-16T02:28:41;22.70;60.90
40738;DHT22;54759;48.094;-1.628;2022-10-16T02:31:49;22.90;61.00
40738;DHT22;54759;48.094;-1.628;2022-10-16T02:34:52;22.50;60.80
40738;DHT22;54759;48.094;-1.628;2022-10-16T02:37:54;22.90;61.20
40738;DHT22;54759;48.094;-1.628;2022-10-16T02:40:56;22.70;61.00
40738;DHT22;54759;48.094;-1.628;2022-10-16T02:43:59;22.10;60.90
40738;DHT22;54759;48.094;-1.628;2022-10-16T02:47:00;22.50;61.00
40738;DHT22;54759;48.094;-1.628;2022-10-16T02:50:02;22.80;61.30
40738;DHT22;54759;48.094;-1.628;2022-10-16T02:53:04;22.70;61.40
40738;DHT22;54759;48.094;-1.628;2022-10-16T02:56:05;22.30;61.00
40738;DHT22;54759;48.094;-1.628;2022-10-16T02:59:08;22.30;61.20
40738;DHT22;54759;48.094;-1.628;2022-10-16T03:02:09;22.70;61.30
40738;DHT22;54759;48.094;-1.628;2022-10-16T03:05:11;22.50;61.20
40738;DHT22;54759;48.094;-1.628;2022-10-16T03:08:13;22.60;61.30
40738;DHT22;54759;48.094;-1.628;2022-10-16T03:11:14;22.50;61.10
40738;DHT22;54759;48.094;-1.628;2022-10-16T03:14:16;22.40;61.20
40738;DHT22;54759;48.094;-1.628;2022-10-16T03:17:18;22.60;61.50
40738;DHT22;54759;48.094;-1.628;2022-10-16T03:20:19;22.40;61.20
40738;DHT22;54759;48.094;-1.628;2022-10-16T03:23:21;22.70;61.20
40738;DHT22;54759;48.094;-1.628;2022-10-16T03:26:23;22.30;61.80
40738;DHT22;54759;48.094;-1.628;2022-10-16T03:29:25;22.20;61.00
40738;DHT22;54759;48.094;-1.628;2022-10-16T03:32:26;23.00;61.70
40738;DHT22;54759;48.094;-1.628;2022-10-16T03:35:29;22.50;61.30
40738;DHT22;54759;48.094;-1.628;2022-10-16T03:38:31;22.80;61.50
40738;DHT22;54759;48.094;-1.628;2022-10-16T03:41:32;22.60;61.40
40738;DHT22;54759;48.094;-1.628;2022-10-16T03:44:34;22.20;61.50
40738;DHT22;54759;48.094;-1.628;2022-10-16T03:47:35;22.60;61.40
40738;DHT22;54759;48.094;-1.628;2022-10-16T03:50:37;22.70;61.50
40738;DHT22;54759;48.094;-1.628;2022-10-16T03:53:39;22.30;61.10
40738;DHT22;54759;48.094;-1.628;2022-10-16T03:56:40;22.40;61.60
40738;DHT22;54759;48.094;-1.628;2022-10-16T03:59:42;22.60;62.00
40738;DHT22;54759;48.094;-1.628;2022-10-16T04:02:44;22.50;61.50
40738;DHT22;54759;48.094;-1.628;2022-10-16T04:05:50;22.70;61.80
40738;DHT22;54759;48.094;-1.628;2022-10-16T04:08:52;22.30;61.70
40738;DHT22;54759;48.094;-1.628;2022-10-16T04:11:53;22.50;62.00
40738;DHT22;54759;48.094;-1.628;2022-10-16T04:14:55;22.10;61.60
40738;DHT22;54759;48.094;-1.628;2022-10-16T04:17:56;22.50;62.00
40738;DHT22;54759;48.094;-1.628;2022-10-16T04:21:01;22.50;61.90
40738;DHT22;54759;48.094;-1.628;2022-10-16T04:24:03;22.10;61.80
40738;DHT22;54759;48.094;-1.628;2022-10-16T04:27:05;22.50;62.00
40738;DHT22;54759;48.094;-1.628;2022-10-16T04:30:08;22.50;62.00
40738;DHT22;54759;48.094;-1.628;2022-10-16T04:33:09;22.80;62.30
40738;DHT22;54759;48.094;-1.628;2022-10-16T04:36:11;22.40;62.10
40738;DHT22;54759;48.094;-1.628;2022-10-16T04:39:12;22.20;62.20
40738;DHT22;54759;48.094;-1.628;2022-10-16T04:42:13;22.40;62.10
40738;DHT22;54759;48.094;-1.628;2022-10-16T04:45:15;22.00;62.30
40738;DHT22;54759;48.094;-1.628;2022-10-16T04:48:18;22.40;62.20
40738;DHT22;54759;48.094;-1.628;2022-10-16T04:51:19;22.00;62.10
40738;DHT22;54759;48.094;-1.628;2022-10-16T04:54:21;22.30;62.10
40738;DHT22;54759;48.094;-1.628;2022-10-16T04:57:22;22.40;62.60
40738;DHT22;54759;48.094;-1.628;2022-10-16T05:00:25;22.10;62.10
40738;DHT22;54759;48.094;-1.628;2022-10-16T05:03:27;22.20;62.30
40738;DHT22;54759;48.094;-1.628;2022-10-16T05:06:28;22.10;62.40
40738;DHT22;54759;48.094;-1.628;2022-10-16T05:09:29;22.20;62.40
40738;DHT22;54759;48.094;-1.628;2022-10-16T05:12:31;22.40;62.90
40738;DHT22;54759;48.094;-1.628;2022-10-16T05:15:33;22.00;62.30
40738;DHT22;54759;48.094;-1.628;2022-10-16T05:18:35;22.20;62.50
40738;DHT22;54759;48.094;-1.628;2022-10-16T05:21:36;22.70;63.00
40738;DHT22;54759;48.094;-1.628;2022-10-16T05:24:38;22.20;62.80
40738;DHT22;54759;48.094;-1.628;2022-10-16T05:27:39;22.30;63.20
40738;DHT22;54759;48.094;-1.628;2022-10-16T05:30:41;22.50;63.20
40738;DHT22;54759;48.094;-1.628;2022-10-16T05:33:43;22.40;62.90
40738;DHT22;54759;48.094;-1.628;2022-10-16T05:36:45;22.50;62.90
40738;DHT22;54759;48.094;-1.628;2022-10-16T05:39:47;22.50;63.20
40738;DHT22;54759;48.094;-1.628;2022-10-16T05:42:48;22.50;63.40
40738;DHT22;54759;48.094;-1.628;2022-10-16T05:45:54;22.50;63.20
40738;DHT22;54759;48.094;-1.628;2022-10-16T05:48:56;22.40;63.30
40738;DHT22;54759;48.094;-1.628;2022-10-16T05:51:57;22.20;63.10
40738;DHT22;54759;48.094;-1.628;2022-10-16T05:55:02;22.60;63.20
40738;DHT22;54759;48.094;-1.628;2022-10-16T05:58:03;22.20;63.20
40738;DHT22;54759;48.094;-1.628;2022-10-16T06:01:06;22.10;63.30
40738;DHT22;54759;48.094;-1.628;2022-10-16T06:04:08;22.10;63.30
40738;DHT22;54759;48.094;-1.628;2022-10-16T06:07:09;22.40;63.40
40738;DHT22;54759;48.094;-1.628;2022-10-16T06:10:11;22.20;63.50
40738;DHT22;54759;48.094;-1.628;2022-10-16T06:13:13;22.10;63.40
40738;DHT22;54759;48.094;-1.628;2022-10-16T06:16:15;22.10;63.60
40738;DHT22;54759;48.094;-1.628;2022-10-16T06:19:16;22.50;63.80
40738;DHT22;54759;48.094;-1.628;2022-10-16T06:22:18;22.30;63.40
40738;DHT22;54759;48.094;-1.628;2022-10-16T06:25:23;22.50;63.70
40738;DHT22;54759;48.094;-1.628;2022-10-16T06:28:24;22.30;63.70
40738;DHT22;54759;48.094;-1.628;2022-10-16T06:31:27;22.00;63.80
40738;DHT22;54759;48.094;-1.628;2022-10-16T06:34:31;22.00;63.40
40738;DHT22;54759;48.094;-1.628;2022-10-16T06:37:32;22.50;63.90
40738;DHT22;54759;48.094;-1.628;2022-10-16T06:40:33;22.60;64.20
40738;DHT22;54759;48.094;-1.628;2022-10-16T06:43:35;22.50;63.80
40738;DHT22;54759;48.094;-1.628;2022-10-16T06:46:37;22.60;64.20
40738;DHT22;54759;48.094;-1.628;2022-10-16T06:49:38;22.40;63.50
40738;DHT22;54759;48.094;-1.628;2022-10-16T06:52:40;22.50;64.10
40738;DHT22;54759;48.094;-1.628;2022-10-16T06:55:41;22.60;64.00
40738;DHT22;54759;48.094;-1.628;2022-10-16T06:58:43;22.20;63.80
40738;DHT22;54759;48.094;-1.628;2022-10-16T07:01:45;22.40;63.90
40738;DHT22;54759;48.094;-1.628;2022-10-16T07:04:47;22.50;64.10
40738;DHT22;54759;48.094;-1.628;2022-10-16T07:07:51;22.50;63.90
40738;DHT22;54759;48.094;-1.628;2022-10-16T07:10:58;22.60;64.20
40738;DHT22;54759;48.094;-1.628;2022-10-16T07:14:00;22.40;63.90
40738;DHT22;54759;48.094;-1.628;2022-10-16T07:17:02;22.20;64.00
40738;DHT22;54759;48.094;-1.628;2022-10-16T07:20:04;22.30;64.30
40738;DHT22;54759;48.094;-1.628;2022-10-16T07:23:06;22.40;64.00
40738;DHT22;54759;48.094;-1.628;2022-10-16T07:26:08;22.40;64.70
40738;DHT22;54759;48.094;-1.628;2022-10-16T07:29:12;22.50;64.10
40738;DHT22;54759;48.094;-1.628;2022-10-16T07:32:15;22.10;63.80
40738;DHT22;54759;48.094;-1.628;2022-10-16T07:35:16;22.50;64.30
40738;DHT22;54759;48.094;-1.628;2022-10-16T07:38:18;22.70;64.40
40738;DHT22;54759;48.094;-1.628;2022-10-16T07:41:20;22.30;63.90
40738;DHT22;54759;48.094;-1.628;2022-10-16T07:44:21;22.70;64.30
40738;DHT22;54759;48.094;-1.628;2022-10-16T07:47:23;22.30;64.30
40738;DHT22;54759;48.094;-1.628;2022-10-16T07:50:25;22.30;63.90
40738;DHT22;54759;48.094;-1.628;2022-10-16T07:53:27;22.60;64.10
40738;DHT22;54759;48.094;-1.628;2022-10-16T07:56:32;22.60;64.30
40738;DHT22;54759;48.094;-1.628;2022-10-16T07:59:33;22.30;63.90
40738;DHT22;54759;48.094;-1.628;2022-10-16T08:02:35;22.40;64.00
40738;DHT22;54759;48.094;-1.628;2022-10-16T08:05:37;22.10;63.80
40738;DHT22;54759;48.094;-1.628;2022-10-16T08:08:38;22.40;63.80
40738;DHT22;54759;48.094;-1.628;2022-10-16T08:11:39;22.30;64.20
40738;DHT22;54759;48.094;-1.628;2022-10-16T08:14:41;22.40;63.90
40738;DHT22;54759;48.094;-1.628;2022-10-16T08:17:55;22.60;64.30
40738;DHT22;54759;48.094;-1.628;2022-10-16T08:20:57;22.60;63.80
40738;DHT22;54759;48.094;-1.628;2022-10-16T08:23:59;22.70;63.90
40738;DHT22;54759;48.094;-1.628;2022-10-16T08:27:04;22.30;63.90
40738;DHT22;54759;48.094;-1.628;2022-10-16T08:30:07;22.30;63.90
40738;DHT22;54759;48.094;-1.628;2022-10-16T08:33:09;22.60;63.80
40738;DHT22;54759;48.094;-1.628;2022-10-16T08:36:12;23.00;64.20
40738;DHT22;54759;48.094;-1.628;2022-10-16T08:39:13;22.70;63.80
40738;DHT22;54759;48.094;-1.628;2022-10-16T08:42:25;22.80;64.00
40738;DHT22;54759;48.094;-1.628;2022-10-16T08:45:39;22.70;63.80
40738;DHT22;54759;48.094;-1.628;2022-10-16T08:48:46;22.80;63.80
40738;DHT22;54759;48.094;-1.628;2022-10-16T08:51:48;22.90;63.80
40738;DHT22;54759;48.094;-1.628;2022-10-16T08:54:54;22.70;63.70
40738;DHT22;54759;48.094;-1.628;2022-10-16T08:57:57;22.70;63.60
40738;DHT22;54759;48.094;-1.628;2022-10-16T09:01:01;22.60;63.60
40738;DHT22;54759;48.094;-1.628;2022-10-16T09:04:29;22.80;63.50
40738;DHT22;54759;48.094;-1.628;2022-10-16T09:07:45;22.50;63.20
40738;DHT22;54759;48.094;-1.628;2022-10-16T09:10:55;22.70;63.30
40738;DHT22;54759;48.094;-1.628;2022-10-16T09:14:01;22.80;63.20
40738;DHT22;54759;48.094;-1.628;2022-10-16T09:17:16;22.80;63.10
40738;DHT22;54759;48.094;-1.628;2022-10-16T09:20:32;22.90;63.10
40738;DHT22;54759;48.094;-1.628;2022-10-16T09:23:37;22.80;62.90
40738;DHT22;54759;48.094;-1.628;2022-10-16T09:26:39;22.50;62.80
40738;DHT22;54759;48.094;-1.628;2022-10-16T09:29:40;23.00;62.90
40738;DHT22;54759;48.094;-1.628;2022-10-16T09:32:43;22.50;62.70
40738;DHT22;54759;48.094;-1.628;2022-10-16T09:35:48;22.70;62.60
40738;DHT22;54759;48.094;-1.628;2022-10-16T09:39:02;22.80;62.60
40738;DHT22;54759;48.094;-1.628;2022-10-16T09:42:04;23.00;62.60
40738;DHT22;54759;48.094;-1.628;2022-10-16T09:45:19;23.00;62.60
40738;DHT22;54759;48.094;-1.628;2022-10-16T09:48:21;22.90;62.30
40738;DHT22;54759;48.094;-1.628;2022-10-16T09:51:25;23.00;62.40
40738;DHT22;54759;48.094;-1.628;2022-10-16T09:54:27;22.60;62.00
40738;DHT22;54759;48.094;-1.628;2022-10-16T09:57:29;22.80;62.20
40738;DHT22;54759;48.094;-1.628;2022-10-16T10:00:34;22.80;61.90
40738;DHT22;54759;48.094;-1.628;2022-10-16T10:03:36;23.00;62.10
40738;DHT22;54759;48.094;-1.628;2022-10-16T10:06:44;23.00;62.20
40738;DHT22;54759;48.094;-1.628;2022-10-16T10:09:46;22.60;61.50
40738;DHT22;54759;48.094;-1.628;2022-10-16T10:12:48;22.80;61.70
40738;DHT22;54759;48.094;-1.628;2022-10-16T10:15:50;22.80;61.60
40738;DHT22;54759;48.094;-1.628;2022-10-16T10:18:58;22.90;61.50
40738;DHT22;54759;48.094;-1.628;2022-10-16T10:22:00;22.80;61.30
40738;DHT22;54759;48.094;-1.628;2022-10-16T10:25:24;22.50;61.10
40738;DHT22;54759;48.094;-1.628;2022-10-16T10:28:47;22.60;60.90
40738;DHT22;54759;48.094;-1.628;2022-10-16T10:32:03;23.10;61.10
40738;DHT22;54759;48.094;-1.628;2022-10-16T10:35:15;23.30;61.20
40738;DHT22;54759;48.094;-1.628;2022-10-16T10:38:30;22.60;60.70
40738;DHT22;54759;48.094;-1.628;2022-10-16T10:41:54;22.50;61.20
40738;DHT22;54759;48.094;-1.628;2022-10-16T10:45:16;22.70;60.50
40738;DHT22;54759;48.094;-1.628;2022-10-16T10:48:43;23.00;60.60
40738;DHT22;54759;48.094;-1.628;2022-10-16T10:51:57;22.90;60.40
40738;DHT22;54759;48.094;-1.628;2022-10-16T10:55:09;23.10;60.60
40738;DHT22;54759;48.094;-1.628;2022-10-16T11:01:50;23.20;60.40
40738;DHT22;54759;48.094;-1.628;2022-10-16T11:05:21;23.30;60.40
40738;DHT22;54759;48.094;-1.628;2022-10-16T11:08:31;22.50;60.00
40738;DHT22;54759;48.094;-1.628;2022-10-16T11:11:40;22.80;60.10
40738;DHT22;54759;48.094;-1.628;2022-10-16T11:14:48;23.00;60.20
40738;DHT22;54759;48.094;-1.628;2022-10-16T11:17:55;23.10;60.40
40738;DHT22;54759;48.094;-1.628;2022-10-16T11:21:04;23.30;60.50
40738;DHT22;54759;48.094;-1.628;2022-10-16T11:24:11;23.20;60.30
40738;DHT22;54759;48.094;-1.628;2022-10-16T11:27:18;23.20;60.30
40738;DHT22;54759;48.094;-1.628;2022-10-16T11:30:22;23.10;60.20
40738;DHT22;54759;48.094;-1.628;2022-10-16T11:33:28;23.10;60.30
40738;DHT22;54759;48.094;-1.628;2022-10-16T11:36:36;23.10;60.30
40738;DHT22;54759;48.094;-1.628;2022-10-16T11:39:40;22.70;60.30
40738;DHT22;54759;48.094;-1.628;2022-10-16T11:42:50;23.00;60.40
40738;DHT22;54759;48.094;-1.628;2022-10-16T11:45:55;22.50;60.20
40738;DHT22;54759;48.094;-1.628;2022-10-16T11:49:06;22.60;60.30
40738;DHT22;54759;48.094;-1.628;2022-10-16T11:52:16;22.90;60.60
40738;DHT22;54759;48.094;-1.628;2022-10-16T11:55:23;23.10;60.80
40738;DHT22;54759;48.094;-1.628;2022-10-16T11:58:29;22.90;60.80
40738;DHT22;54759;48.094;-1.628;2022-10-16T12:01:40;23.00;61.00
40738;DHT22;54759;48.094;-1.628;2022-10-16T12:04:46;22.50;61.00
40738;DHT22;54759;48.094;-1.628;2022-10-16T12:07:55;23.00;61.20
40738;DHT22;54759;48.094;-1.628;2022-10-16T12:11:20;22.60;61.10
40738;DHT22;54759;48.094;-1.628;2022-10-16T12:14:36;22.80;61.40
40738;DHT22;54759;48.094;-1.628;2022-10-16T12:17:57;22.60;61.30
40738;DHT22;54759;48.094;-1.628;2022-10-16T12:20:59;23.00;61.70
40738;DHT22;54759;48.094;-1.628;2022-10-16T12:24:06;23.10;61.60
40738;DHT22;54759;48.094;-1.628;2022-10-16T12:27:23;23.00;61.80
40738;DHT22;54759;48.094;-1.628;2022-10-16T12:30:27;23.40;62.40
40738;DHT22;54759;48.094;-1.628;2022-10-16T12:33:40;23.00;62.10
40738;DHT22;54759;48.094;-1.628;2022-10-16T12:36:42;22.80;62.20
40738;DHT22;54759;48.094;-1.628;2022-10-16T12:39:43;23.00;62.50
40738;DHT22;54759;48.094;-1.628;2022-10-16T12:42:45;22.50;62.40
40738;DHT22;54759;48.094;-1.628;2022-10-16T12:45:47;22.60;62.60
40738;DHT22;54759;48.094;-1.628;2022-10-16T12:49:07;23.10;62.80
40738;DHT22;54759;48.094;-1.628;2022-10-16T12:52:26;22.60;62.70
40738;DHT22;54759;48.094;-1.628;2022-10-16T12:55:35;23.00;63.10
40738;DHT22;54759;48.094;-1.628;2022-10-16T12:58:53;22.70;63.10
40738;DHT22;54759;48.094;-1.628;2022-10-16T13:02:11;23.00;63.40
40738;DHT22;54759;48.094;-1.628;2022-10-16T13:05:29;22.60;63.30
40738;DHT22;54759;48.094;-1.628;2022-10-16T13:08:46;22.70;63.40
40738;DHT22;54759;48.094;-1.628;2022-10-16T13:12:05;23.20;63.90
40738;DHT22;54759;48.094;-1.628;2022-10-16T13:15:20;23.00;63.90
40738;DHT22;54759;48.094;-1.628;2022-10-16T13:18:29;22.90;64.00
40738;DHT22;54759;48.094;-1.628;2022-10-16T13:21:42;23.10;64.20
40738;DHT22;54759;48.094;-1.628;2022-10-16T13:24:56;22.90;64.20
40738;DHT22;54759;48.094;-1.628;2022-10-16T13:28:01;22.60;64.20
40738;DHT22;54759;48.094;-1.628;2022-10-16T13:31:03;23.10;64.50
40738;DHT22;54759;48.094;-1.628;2022-10-16T13:34:10;22.90;64.70
40738;DHT22;54759;48.094;-1.628;2022-10-16T13:37:18;23.00;64.90
40738;DHT22;54759;48.094;-1.628;2022-10-16T13:40:21;22.90;65.00
40738;DHT22;54759;48.094;-1.628;2022-10-16T13:43:27;22.80;65.10
40738;DHT22;54759;48.094;-1.628;2022-10-16T13:46:28;23.00;65.30
40738;DHT22;54759;48.094;-1.628;2022-10-16T13:49:35;23.00;65.60
40738;DHT22;54759;48.094;-1.628;2022-10-16T13:52:37;22.90;65.70
40738;DHT22;54759;48.094;-1.628;2022-10-16T13:55:39;23.10;65.90
40738;DHT22;54759;48.094;-1.628;2022-10-16T13:58:41;23.20;66.20
40738;DHT22;54759;48.094;-1.628;2022-10-16T14:01:43;23.00;65.80
40738;DHT22;54759;48.094;-1.628;2022-10-16T14:04:46;22.80;66.10
40738;DHT22;54759;48.094;-1.628;2022-10-16T14:07:49;23.10;66.30
40738;DHT22;54759;48.094;-1.628;2022-10-16T14:10:54;22.70;66.30
40738;DHT22;54759;48.094;-1.628;2022-10-16T14:13:56;23.50;66.70
40738;DHT22;54759;48.094;-1.628;2022-10-16T14:16:58;23.60;67.00
40738;DHT22;54759;48.094;-1.628;2022-10-16T14:20:05;23.10;66.70
40738;DHT22;54759;48.094;-1.628;2022-10-16T14:23:20;23.30;66.90
40738;DHT22;54759;48.094;-1.628;2022-10-16T14:26:23;22.80;67.00
40738;DHT22;54759;48.094;-1.628;2022-10-16T14:29:26;23.20;67.10
40738;DHT22;54759;48.094;-1.628;2022-10-16T14:32:28;22.80;66.90
40738;DHT22;54759;48.094;-1.628;2022-10-16T14:35:33;23.10;67.40
40738;DHT22;54759;48.094;-1.628;2022-10-16T14:38:35;23.10;67.30
40738;DHT22;54759;48.094;-1.628;2022-10-16T14:41:43;23.20;67.50
40738;DHT22;54759;48.094;-1.628;2022-10-16T14:44:49;23.30;67.70
40738;DHT22;54759;48.094;-1.628;2022-10-16T14:47:56;23.10;67.60
40738;DHT22;54759;48.094;-1.628;2022-10-16T14:50:58;23.30;67.80
40738;DHT22;54759;48.094;-1.628;2022-10-16T14:54:00;23.50;68.10
40738;DHT22;54759;48.094;-1.628;2022-10-16T14:57:03;23.30;68.10
40738;DHT22;54759;48.094;-1.628;2022-10-16T15:00:10;23.10;68.00
40738;DHT22;54759;48.094;-1.628;2022-10-16T15:03:15;23.20;67.90
40738;DHT22;54759;48.094;-1.628;2022-10-16T15:06:17;23.30;68.20
40738;DHT22;54759;48.094;-1.628;2022-10-16T15:09:18;23.40;68.30
40738;DHT22;54759;48.094;-1.628;2022-10-16T15:12:20;23.00;68.30
40738;DHT22;54759;48.094;-1.628;2022-10-16T15:15:31;23.00;68.10
40738;DHT22;54759;48.094;-1.628;2022-10-16T15:18:33;23.20;68.30
40738;DHT22;54759;48.094;-1.628;2022-10-16T15:21:35;23.30;68.50
40738;DHT22;54759;48.094;-1.628;2022-10-16T15:24:36;23.50;68.80
40738;DHT22;54759;48.094;-1.628;2022-10-16T15:27:41;23.30;68.40
40738;DHT22;54759;48.094;-1.628;2022-10-16T15:30:43;23.40;68.80
40738;DHT22;54759;48.094;-1.628;2022-10-16T15:33:46;23.50;68.70
40738;DHT22;54759;48.094;-1.628;2022-10-16T15:36:54;23.00;68.60
40738;DHT22;54759;48.094;-1.628;2022-10-16T15:39:57;23.30;68.70
40738;DHT22;54759;48.094;-1.628;2022-10-16T15:42:58;23.20;68.90
40738;DHT22;54759;48.094;-1.628;2022-10-16T15:46:02;23.30;69.20
40738;DHT22;54759;48.094;-1.628;2022-10-16T15:49:04;23.40;68.90
40738;DHT22;54759;48.094;-1.628;2022-10-16T15:52:06;23.20;68.90
40738;DHT22;54759;48.094;-1.628;2022-10-16T15:55:08;23.40;69.20
40738;DHT22;54759;48.094;-1.628;2022-10-16T15:58:10;23.40;69.20
40738;DHT22;54759;48.094;-1.628;2022-10-16T16:01:11;23.30;69.40
40738;DHT22;54759;48.094;-1.628;2022-10-16T16:04:13;23.30;69.50
40738;DHT22;54759;48.094;-1.628;2022-10-16T16:07:35;23.30;69.50
40738;DHT22;54759;48.094;-1.628;2022-10-16T16:10:37;23.20;69.30
40738;DHT22;54759;48.094;-1.628;2022-10-16T16:13:40;23.50;69.60
40738;DHT22;54759;48.094;-1.628;2022-10-16T16:16:42;23.30;69.40
40738;DHT22;54759;48.094;-1.628;2022-10-16T16:19:43;23.40;69.70
40738;DHT22;54759;48.094;-1.628;2022-10-16T16:22:45;23.20;69.50
40738;DHT22;54759;48.094;-1.628;2022-10-16T16:26:04;23.50;69.80
40738;DHT22;54759;48.094;-1.628;2022-10-16T16:29:06;23.50;69.80
40738;DHT22;54759;48.094;-1.628;2022-10-16T16:32:08;23.20;69.60
40738;DHT22;54759;48.094;-1.628;2022-10-16T16:35:09;23.60;69.80
40738;DHT22;54759;48.094;-1.628;2022-10-16T16:38:11;22.70;69.50
40738;DHT22;54759;48.094;-1.628;2022-10-16T16:41:14;23.40;69.80
40738;DHT22;54759;48.094;-1.628;2022-10-16T16:44:16;23.20;69.60
40738;DHT22;54759;48.094;-1.628;2022-10-16T16:47:18;22.90;69.50
40738;DHT22;54759;48.094;-1.628;2022-10-16T16:50:20;23.20;69.90
40738;DHT22;54759;48.094;-1.628;2022-10-16T16:53:22;23.50;69.90
40738;DHT22;54759;48.094;-1.628;2022-10-16T16:56:24;23.50;69.90
40738;DHT22;54759;48.094;-1.628;2022-10-16T16:59:29;23.40;69.90
40738;DHT22;54759;48.094;-1.628;2022-10-16T17:02:33;23.50;70.10
40738;DHT22;54759;48.094;-1.628;2022-10-16T17:05:35;23.20;69.90
40738;DHT22;54759;48.094;-1.628;2022-10-16T17:08:37;23.30;70.10
40738;DHT22;54759;48.094;-1.628;2022-10-16T17:11:38;23.40;70.40
40738;DHT22;54759;48.094;-1.628;2022-10-16T17:14:42;23.40;70.70
40738;DHT22;54759;48.094;-1.628;2022-10-16T17:17:44;23.50;70.10
40738;DHT22;54759;48.094;-1.628;2022-10-16T17:20:46;23.50;70.50
40738;DHT22;54759;48.094;-1.628;2022-10-16T17:23:51;23.30;70.20
40738;DHT22;54759;48.094;-1.628;2022-10-16T17:26:52;23.00;70.10
40738;DHT22;54759;48.094;-1.628;2022-10-16T17:29:54;23.50;70.50
40738;DHT22;54759;48.094;-1.628;2022-10-16T17:32:55;23.10;70.70
40738;DHT22;54759;48.094;-1.628;2022-10-16T17:35:58;23.60;70.50
40738;DHT22;54759;48.094;-1.628;2022-10-16T17:39:00;23.50;70.60
40738;DHT22;54759;48.094;-1.628;2022-10-16T17:42:04;23.20;70.30
40738;DHT22;54759;48.094;-1.628;2022-10-16T17:45:05;23.30;70.60
40738;DHT22;54759;48.094;-1.628;2022-10-16T17:48:07;23.30;70.70
40738;DHT22;54759;48.094;-1.628;2022-10-16T17:51:11;23.00;70.40
40738;DHT22;54759;48.094;-1.628;2022-10-16T17:54:14;23.50;70.50
40738;DHT22;54759;48.094;-1.628;2022-10-16T17:57:15;23.30;70.50
40738;DHT22;54759;48.094;-1.628;2022-10-16T18:00:17;23.50;70.60
40738;DHT22;54759;48.094;-1.628;2022-10-16T18:03:19;23.10;70.50
40738;DHT22;54759;48.094;-1.628;2022-10-16T18:06:20;23.30;70.40
40738;DHT22;54759;48.094;-1.628;2022-10-16T18:09:24;22.90;70.40
40738;DHT22;54759;48.094;-1.628;2022-10-16T18:12:26;23.20;70.20
40738;DHT22;54759;48.094;-1.628;2022-10-16T18:15:28;23.70;70.50
40738;DHT22;54759;48.094;-1.628;2022-10-16T18:18:33;23.50;70.30
40738;DHT22;54759;48.094;-1.628;2022-10-16T18:21:34;23.60;70.40
40738;DHT22;54759;48.094;-1.628;2022-10-16T18:24:37;23.40;70.10
40738;DHT22;54759;48.094;-1.628;2022-10-16T18:27:38;23.70;70.30
40738;DHT22;54759;48.094;-1.628;2022-10-16T18:30:39;23.70;70.30
40738;DHT22;54759;48.094;-1.628;2022-10-16T18:33:41;23.50;70.10
40738;DHT22;54759;48.094;-1.628;2022-10-16T18:36:47;23.00;69.90
40738;DHT22;54759;48.094;-1.628;2022-10-16T18:39:55;23.50;70.00
40738;DHT22;54759;48.094;-1.628;2022-10-16T18:42:56;23.20;69.70
40738;DHT22;54759;48.094;-1.628;2022-10-16T18:45:58;23.50;69.80
40738;DHT22;54759;48.094;-1.628;2022-10-16T18:49:03;23.40;69.90
40738;DHT22;54759;48.094;-1.628;2022-10-16T18:52:05;23.50;69.80
40738;DHT22;54759;48.094;-1.628;2022-10-16T18:55:08;23.50;69.70
40738;DHT22;54759;48.094;-1.628;2022-10-16T18:58:10;23.40;69.80
40738;DHT22;54759;48.094;-1.628;2022-10-16T19:01:13;23.30;69.40
40738;DHT22;54759;48.094;-1.628;2022-10-16T19:04:17;23.30;69.10
40738;DHT22;54759;48.094;-1.628;2022-10-16T19:07:20;23.40;69.10
40738;DHT22;54759;48.094;-1.628;2022-10-16T19:10:21;23.50;69.30